Time;durP1;ratioP1;P1;durP2;ratioP2;P2;SDS_P1;SDS_P2;PMS_P1;PMS_P2;Temp;Humidity;BMP_temperature;BMP_pressure;BME280_temperature;BME280_humidity;BME280_pressure;Samples;Min_cycle;Max_cycle;Signal;HPM_P1;HPM_P2
2022/10/14 00:02:20;;;;;;;125.00;18.63;;;11.90;99.90;;;;;;4934660;28;20166;-64
2022/10/14 00:04:46;;;;;;;44.38;16.38;;;11.90;99.90;;;;;;4936811;28;20394;-64
2022/10/14 00:07:12;;;;;;;32.95;16.90;;;11.90;99.90;;;;;;4937750;28;20174;-65
2022/10/14 00:09:40;;;;;;;100.55;16.83;;;11.80;99.90;;;;;;4949260;28;20081;-64
2022/10/14 00:12:06;;;;;;;85.25;17.80;;;11.80;99.90;;;;;;4931921;28;20126;-65
2022/10/14 00:14:32;;;;;;;63.40;15.38;;;11.80;99.90;;;;;;4940214;28;20482;-65
2022/10/14 00:16:58;;;;;;;151.60;17.48;;;11.80;99.90;;;;;;4941725;28;20047;-64
2022/10/14 00:19:24;;;;;;;32.47;15.07;;;11.70;99.90;;;;;;4948652;28;20047;-64
2022/10/14 00:21:49;;;;;;;22.23;14.07;;;11.70;99.90;;;;;;4953665;28;20054;-65
2022/10/14 00:24:16;;;;;;;86.70;15.73;;;11.70;99.90;;;;;;4938184;28;20560;-65
2022/10/14 00:26:42;;;;;;;125.32;15.60;;;11.60;99.90;;;;;;4944658;28;20058;-65
2022/10/14 00:29:12;;;;;;;89.35;15.43;;;11.60;99.90;;;;;;4936993;28;20054;-64
2022/10/14 00:31:38;;;;;;;28.67;13.10;;;11.50;99.90;;;;;;4950873;28;20512;-65
2022/10/14 00:34:04;;;;;;;60.15;13.30;;;11.50;99.90;;;;;;4939770;28;20071;-65
2022/10/14 00:36:30;;;;;;;18.75;12.20;;;11.40;99.90;;;;;;4929251;28;20051;-64
2022/10/14 00:38:56;;;;;;;22.80;12.52;;;11.40;99.90;;;;;;4953878;28;20489;-64
2022/10/14 00:41:29;;;;;;;89.50;14.27;;;11.40;99.90;;;;;;4926554;28;20109;-65
2022/10/14 00:43:58;;;;;;;17.67;12.93;;;11.40;99.90;;;;;;4932849;28;20050;-64
2022/10/14 00:46:25;;;;;;;46.88;14.02;;;11.30;99.90;;;;;;4918902;28;20778;-64
2022/10/14 00:48:51;;;;;;;50.83;13.30;;;11.30;99.90;;;;;;4950821;28;20050;-65
2022/10/14 00:51:18;;;;;;;20.70;13.48;;;11.30;99.90;;;;;;4935892;28;20514;-65
2022/10/14 00:53:45;;;;;;;30.45;14.63;;;11.30;99.90;;;;;;4949133;28;20165;-65
2022/10/14 00:56:15;;;;;;;57.75;14.43;;;11.30;99.90;;;;;;4952122;28;20146;-65
2022/10/14 00:58:43;;;;;;;25.17;14.77;;;11.30;99.90;;;;;;4937752;28;20486;-65
2022/10/14 01:01:08;;;;;;;32.25;14.50;;;11.30;99.90;;;;;;4926065;28;20117;-65
2022/10/14 01:03:34;;;;;;;48.17;15.00;;;11.20;99.90;;;;;;4934185;28;20047;-65
2022/10/14 01:06:33;;;;;;;20.70;15.07;;;11.20;99.90;;;;;;4936457;28;20536;-64
2022/10/14 01:09:27;;;;;;;15.30;13.43;;;11.20;99.90;;;;;;4934841;28;20043;-64
2022/10/14 01:12:05;;;;;;;26.10;15.63;;;11.10;99.90;;;;;;4932030;28;20047;-64
2022/10/14 01:14:37;;;;;;;22.30;14.68;;;11.10;99.90;;;;;;4937095;28;20054;-65
2022/10/14 01:17:48;;;;;;;40.58;16.23;;;11.20;99.90;;;;;;4935030;28;20078;-65
2022/10/14 01:20:41;;;;;;;27.58;16.45;;;11.10;99.90;;;;;;4885512;28;20840;-64
2022/10/14 01:23:16;;;;;;;24.90;16.13;;;11.10;99.90;;;;;;4953738;28;20116;-65
2022/10/14 01:26:35;;;;;;;38.40;16.75;;;11.00;99.90;;;;;;4951724;28;20055;-64
2022/10/14 01:29:32;;;;;;;99.47;19.05;;;11.10;99.90;;;;;;4833988;29;20584;-64
2022/10/14 01:32:07;;;;;;;41.75;17.23;;;11.10;99.90;;;;;;4953226;28;20382;-65
2022/10/14 01:34:41;;;;;;;132.73;21.05;;;11.00;99.90;;;;;;4934235;28;20126;-65
2022/10/14 01:37:15;;;;;;;128.98;21.50;;;11.00;99.90;;;;;;4947825;28;20038;-65
2022/10/14 01:39:46;;;;;;;49.00;16.63;;;11.10;99.90;;;;;;4934582;28;20054;-65
2022/10/14 01:42:16;;;;;;;110.20;17.92;;;11.00;99.90;;;;;;4923694;28;20040;-65
2022/10/14 01:44:47;;;;;;;77.25;17.60;;;11.00;99.90;;;;;;4935380;28;20086;-65
2022/10/14 01:47:18;;;;;;;30.38;17.02;;;11.00;99.90;;;;;;4934967;28;20086;-65
2022/10/14 01:49:54;;;;;;;142.90;17.35;;;11.00;99.90;;;;;;4938541;28;20051;-65
2022/10/14 01:52:27;;;;;;;118.20;16.05;;;10.90;99.90;;;;;;4952958;28;20054;-65
2022/10/14 01:54:56;;;;;;;169.00;17.48;;;10.90;99.90;;;;;;4919966;28;20047;-64
2022/10/14 01:57:26;;;;;;;224.30;16.48;;;10.90;99.90;;;;;;4950674;28;20091;-65
2022/10/14 01:59:54;;;;;;;125.05;13.90;;;10.90;99.90;;;;;;4936896;28;20047;-64
2022/10/14 02:02:20;;;;;;;125.82;17.70;;;10.80;99.90;;;;;;4928781;28;20507;-64
2022/10/14 02:04:46;;;;;;;147.02;17.92;;;10.80;99.90;;;;;;4950121;28;20567;-64
2022/10/14 02:07:24;;;;;;;238.13;22.00;;;10.80;99.90;;;;;;4951433;28;20047;-65
2022/10/14 02:10:07;;;;;;;109.43;18.60;;;10.80;99.90;;;;;;4932553;28;20047;-64
2022/10/14 02:12:39;;;;;;;;;;;10.80;99.90;;;;;;4936818;28;20055;-64
2022/10/14 02:15:19;;;;;;;69.50;16.52;;;10.70;99.90;;;;;;4949904;28;20024;-64
2022/10/14 02:17:45;;;;;;;251.18;18.90;;;10.70;99.90;;;;;;4931908;28;20054;-65
2022/10/14 02:20:27;;;;;;;57.15;13.63;;;10.70;99.90;;;;;;4905513;28;20042;-64
2022/10/14 02:23:09;;;;;;;57.80;12.68;;;10.70;99.90;;;;;;4949374;28;20127;-65
2022/10/14 02:25:39;;;;;;;103.30;14.50;;;10.60;99.90;;;;;;4951060;28;20101;-64
2022/10/14 02:28:07;;;;;;;66.22;14.50;;;10.60;99.90;;;;;;4945853;28;20157;-64
2022/10/14 02:30:40;;;;;;;84.00;15.88;;;10.60;99.90;;;;;;4951641;28;20050;-65
2022/10/14 02:33:07;;;;;;;126.30;16.75;;;10.60;99.90;;;;;;4952114;28;20038;-64
2022/10/14 02:35:35;;;;;;;46.78;12.80;;;10.60;99.90;;;;;;4950004;28;20149;-64
2022/10/14 02:38:02;;;;;;;96.80;13.88;;;10.60;99.90;;;;;;4945641;28;20047;-65
2022/10/14 02:40:34;;;;;;;76.65;13.27;;;10.60;99.90;;;;;;4952998;28;20079;-65
2022/10/14 02:42:59;;;;;;;71.30;12.55;;;10.60;99.90;;;;;;4952935;28;20055;-64
2022/10/14 02:45:26;;;;;;;33.33;11.27;;;10.60;99.90;;;;;;4950174;28;20702;-64
2022/10/14 02:47:53;;;;;;;208.95;13.70;;;10.60;99.90;;;;;;4933925;28;20541;-64
2022/10/14 02:50:19;;;;;;;54.90;10.63;;;10.60;99.90;;;;;;4936727;28;20462;-65
2022/10/14 02:52:45;;;;;;;59.30;9.73;;;10.50;99.90;;;;;;4938212;28;20042;-65
2022/10/14 02:55:11;;;;;;;57.55;10.27;;;10.50;99.90;;;;;;4951630;28;20109;-64
2022/10/14 02:57:37;;;;;;;34.03;8.98;;;10.50;99.90;;;;;;4942626;28;20126;-65
2022/10/14 03:00:04;;;;;;;315.65;13.35;;;10.50;99.90;;;;;;4937478;28;20122;-64
2022/10/14 03:02:30;;;;;;;89.15;11.05;;;10.50;99.90;;;;;;4917999;28;20453;-65
2022/10/14 03:04:57;;;;;;;93.60;10.13;;;10.50;99.90;;;;;;4929123;28;20063;-65
2022/10/14 03:07:23;;;;;;;149.63;10.88;;;10.40;99.90;;;;;;4931133;28;20558;-65
2022/10/14 03:09:49;;;;;;;71.85;10.07;;;10.40;99.90;;;;;;4930556;29;20174;-64
2022/10/14 03:12:15;;;;;;;95.25;10.80;;;10.40;99.90;;;;;;4929677;28;20051;-64
2022/10/14 03:14:41;;;;;;;82.63;10.20;;;10.40;99.90;;;;;;4938080;28;20609;-65
2022/10/14 03:17:07;;;;;;;116.63;10.52;;;10.30;99.90;;;;;;4929838;28;20106;-65
2022/10/14 03:19:33;;;;;;;140.88;10.45;;;10.30;99.90;;;;;;4934194;29;20123;-64
2022/10/14 03:21:59;;;;;;;46.03;9.05;;;10.30;99.90;;;;;;4932734;28;20142;-65
2022/10/14 03:24:25;;;;;;;64.85;9.82;;;10.30;99.90;;;;;;4926594;28;20126;-64
2022/10/14 03:26:51;;;;;;;115.05;11.30;;;10.30;99.90;;;;;;4937528;28;20487;-64
2022/10/14 03:29:16;;;;;;;132.10;10.95;;;10.30;99.90;;;;;;4933195;28;20051;-64
2022/10/14 03:31:43;;;;;;;58.25;8.30;;;10.30;99.90;;;;;;4932256;28;20047;-65
2022/10/14 03:34:08;;;;;;;131.63;12.23;;;10.30;99.90;;;;;;4938480;28;20051;-64
2022/10/14 03:36:34;;;;;;;92.68;10.77;;;10.30;99.90;;;;;;4931713;28;20537;-64
2022/10/14 03:39:00;;;;;;;75.05;9.18;;;10.30;99.90;;;;;;4927856;28;20055;-64
2022/10/14 03:41:26;;;;;;;260.58;13.38;;;10.30;99.90;;;;;;4930734;28;20048;-64
2022/10/14 03:43:52;;;;;;;131.77;9.20;;;10.30;99.90;;;;;;4927818;28;20086;-64
2022/10/14 03:46:18;;;;;;;111.65;9.30;;;10.30;99.90;;;;;;4928574;28;20079;-64
2022/10/14 03:48:44;;;;;;;89.00;7.80;;;10.30;99.90;;;;;;4929833;28;20066;-64
2022/10/14 03:51:10;;;;;;;21.95;7.47;;;10.30;99.90;;;;;;4931005;28;20409;-65
2022/10/14 03:53:35;;;;;;;119.15;10.88;;;10.30;99.90;;;;;;4936657;28;20043;-65
2022/10/14 03:56:01;;;;;;;95.40;8.55;;;10.30;99.90;;;;;;4933326;28;20061;-64
2022/10/14 03:58:27;;;;;;;86.45;9.90;;;10.30;99.90;;;;;;4931582;28;20066;-65
2022/10/14 04:00:53;;;;;;;72.45;8.70;;;10.30;99.90;;;;;;4932613;28;20468;-64
2022/10/14 04:03:18;;;;;;;78.60;9.75;;;10.30;99.90;;;;;;4929506;28;20130;-64
2022/10/14 04:05:44;;;;;;;43.83;9.40;;;10.30;99.90;;;;;;4927206;28;20427;-64
2022/10/14 04:08:10;;;;;;;66.75;10.10;;;10.20;99.90;;;;;;4928682;28;20047;-64
2022/10/14 04:10:36;;;;;;;121.75;11.88;;;10.30;99.90;;;;;;4935911;28;20043;-64
2022/10/14 04:13:02;;;;;;;95.95;9.75;;;10.30;99.90;;;;;;4938853;28;20106;-65
2022/10/14 04:15:28;;;;;;;67.07;10.77;;;10.30;99.90;;;;;;4932789;28;20066;-64
2022/10/14 04:17:55;;;;;;;134.13;12.43;;;10.30;99.90;;;;;;4935533;29;20448;-64
2022/10/14 04:20:20;;;;;;;97.35;12.02;;;10.30;99.90;;;;;;4933352;28;20079;-64
2022/10/14 04:22:46;;;;;;;171.82;15.68;;;10.30;99.90;;;;;;4932749;28;20158;-65
2022/10/14 04:25:12;;;;;;;108.53;14.90;;;10.30;99.90;;;;;;4933933;28;20130;-64
2022/10/14 04:27:38;;;;;;;75.65;12.35;;;10.30;99.90;;;;;;4934093;28;20070;-64
2022/10/14 04:30:05;;;;;;;55.95;12.20;;;10.40;99.90;;;;;;4931543;28;20405;-64
2022/10/14 04:32:30;;;;;;;136.60;14.70;;;10.40;99.90;;;;;;4933849;28;20044;-65
2022/10/14 04:34:56;;;;;;;141.55;13.43;;;10.40;99.90;;;;;;4933959;28;20047;-64
2022/10/14 04:37:22;;;;;;;102.13;13.65;;;10.40;99.90;;;;;;4934128;28;20173;-64
2022/10/14 04:39:48;;;;;;;167.75;15.80;;;10.40;99.90;;;;;;4934877;28;20043;-64
2022/10/14 04:42:14;;;;;;;186.85;16.13;;;10.40;99.90;;;;;;4940074;28;20138;-64
2022/10/14 04:44:39;;;;;;;92.30;13.98;;;10.40;99.90;;;;;;4933231;28;20120;-64
2022/10/14 04:47:05;;;;;;;109.50;14.90;;;10.40;99.90;;;;;;4932449;28;20093;-64
2022/10/14 04:49:31;;;;;;;50.13;11.02;;;10.40;99.90;;;;;;4932151;28;20047;-64
2022/10/14 04:51:57;;;;;;;103.95;12.45;;;10.40;99.90;;;;;;4930796;28;20506;-64
2022/10/14 04:54:22;;;;;;;133.75;12.70;;;10.40;99.90;;;;;;4917221;29;20054;-64
2022/10/14 04:56:48;;;;;;;124.63;12.15;;;10.40;99.90;;;;;;4934618;28;20047;-65
2022/10/14 04:59:14;;;;;;;86.28;9.90;;;10.40;99.90;;;;;;4931345;28;20047;-64
2022/10/14 05:01:40;;;;;;;108.82;9.63;;;10.40;99.90;;;;;;4930814;28;20043;-64
2022/10/14 05:04:06;;;;;;;91.55;7.75;;;10.40;99.90;;;;;;4917947;28;20055;-64
2022/10/14 05:06:32;;;;;;;30.08;7.18;;;10.30;99.90;;;;;;4935734;28;20054;-64
2022/10/14 05:08:57;;;;;;;69.63;7.72;;;10.30;99.90;;;;;;4931103;28;20080;-65
2022/10/14 05:11:23;;;;;;;107.38;9.43;;;10.30;99.90;;;;;;4921851;28;20050;-64
2022/10/14 05:13:49;;;;;;;50.80;8.00;;;10.30;99.90;;;;;;4944994;28;20047;-64
2022/10/14 05:16:15;;;;;;;179.68;10.30;;;10.30;99.90;;;;;;4942283;28;20709;-65
2022/10/14 05:18:44;;;;;;;193.00;9.73;;;10.30;99.90;;;;;;4934455;28;20134;-64
2022/10/14 05:21:10;;;;;;;109.25;10.07;;;10.30;99.90;;;;;;4946797;28;20049;-64
2022/10/14 05:23:36;;;;;;;49.45;10.20;;;10.30;99.90;;;;;;4950752;28;20043;-64
2022/10/14 05:26:02;;;;;;;55.78;8.45;;;10.30;99.90;;;;;;4913963;28;20058;-65
2022/10/14 05:28:28;;;;;;;163.05;10.25;;;10.30;99.90;;;;;;4926912;28;20071;-64
2022/10/14 05:30:54;;;;;;;49.08;8.48;;;10.30;99.90;;;;;;4929081;28;20047;-64
2022/10/14 05:33:20;;;;;;;78.82;8.98;;;10.30;99.90;;;;;;4934631;28;20069;-65
2022/10/14 05:35:46;;;;;;;118.32;10.30;;;10.30;99.90;;;;;;4947411;28;20055;-64
2022/10/14 05:38:12;;;;;;;63.13;9.80;;;10.20;99.90;;;;;;4929325;28;20494;-65
2022/10/14 05:40:38;;;;;;;60.45;9.95;;;10.20;99.90;;;;;;4951378;28;20410;-64
2022/10/14 05:43:05;;;;;;;52.35;9.07;;;10.20;99.90;;;;;;4949219;28;20058;-64
2022/10/14 05:45:31;;;;;;;34.53;9.13;;;10.20;99.90;;;;;;4943972;28;20693;-64
2022/10/14 05:47:57;;;;;;;79.47;11.02;;;10.20;99.90;;;;;;4952507;28;20606;-65
2022/10/14 05:50:23;;;;;;;65.43;10.50;;;10.20;99.90;;;;;;4946378;28;20069;-65
2022/10/14 05:52:49;;;;;;;86.20;12.13;;;10.20;99.90;;;;;;4927673;28;20093;-64
2022/10/14 05:55:15;;;;;;;110.55;12.88;;;10.20;99.90;;;;;;4934384;28;20194;-64
2022/10/14 05:57:43;;;;;;;70.55;11.30;;;10.30;99.90;;;;;;4950322;28;20043;-64
2022/10/14 06:00:09;;;;;;;117.47;12.98;;;10.20;99.90;;;;;;4928296;28;20054;-64
2022/10/14 06:02:35;;;;;;;53.58;12.50;;;10.30;99.90;;;;;;4932673;28;20108;-64
2022/10/14 06:05:01;;;;;;;56.38;12.00;;;10.30;99.90;;;;;;4938219;28;20159;-64
2022/10/14 06:07:27;;;;;;;77.50;13.23;;;10.30;99.90;;;;;;4930637;28;20449;-64
2022/10/14 06:09:53;;;;;;;80.45;12.75;;;10.30;99.90;;;;;;4935132;28;20047;-64
2022/10/14 06:12:18;;;;;;;75.10;13.85;;;10.30;99.90;;;;;;4944254;28;20607;-62
2022/10/14 06:14:44;;;;;;;43.75;13.45;;;10.30;99.90;;;;;;4924776;28;20631;-62
2022/10/14 06:17:10;;;;;;;71.22;14.43;;;10.40;99.90;;;;;;4920729;28;20042;-62
2022/10/14 06:19:36;;;;;;;62.13;13.82;;;10.40;99.90;;;;;;4943129;28;20198;-62
2022/10/14 06:22:02;;;;;;;56.25;13.20;;;10.40;99.90;;;;;;4952870;28;20449;-62
2022/10/14 06:24:28;;;;;;;49.38;13.50;;;10.40;99.90;;;;;;4952130;28;20047;-62
2022/10/14 06:26:53;;;;;;;37.92;14.15;;;10.40;99.90;;;;;;4954003;28;20122;-62
2022/10/14 06:29:19;;;;;;;38.08;14.20;;;10.40;99.90;;;;;;4949073;28;20122;-62
2022/10/14 06:31:45;;;;;;;38.45;14.00;;;10.50;99.90;;;;;;4924792;28;20047;-61
2022/10/14 06:34:11;;;;;;;42.72;15.35;;;10.50;99.90;;;;;;4934942;28;20125;-62
2022/10/14 06:36:37;;;;;;;41.50;14.63;;;10.50;99.90;;;;;;4934901;28;20125;-62
2022/10/14 06:39:04;;;;;;;44.75;16.40;;;10.50;99.90;;;;;;4943463;28;20043;-62
2022/10/14 06:41:31;;;;;;;45.55;17.02;;;10.60;99.90;;;;;;4946111;28;20047;-62
2022/10/14 06:43:57;;;;;;;93.28;17.77;;;10.70;99.90;;;;;;4928203;28;20054;-62
2022/10/14 06:46:24;;;;;;;150.00;19.38;;;10.60;99.90;;;;;;4930548;28;20051;-62
2022/10/14 06:48:50;;;;;;;45.42;16.83;;;10.60;99.90;;;;;;4949587;28;20651;-61
2022/10/14 06:51:16;;;;;;;120.15;19.40;;;10.60;99.90;;;;;;4932392;28;20133;-61
2022/10/14 06:53:42;;;;;;;114.15;17.38;;;10.70;99.90;;;;;;4936752;28;20055;-62
2022/10/14 06:56:10;;;;;;;122.95;18.95;;;10.70;99.90;;;;;;4917991;28;20569;-61
2022/10/14 06:58:36;;;;;;;109.50;19.05;;;10.70;99.90;;;;;;4933624;28;20600;-62
2022/10/14 07:01:06;;;;;;;106.85;17.85;;;10.70;99.90;;;;;;4946613;28;20085;-62
2022/10/14 07:03:37;;;;;;;104.35;18.67;;;10.70;99.90;;;;;;4924124;28;20607;-62
2022/10/14 07:06:05;;;;;;;91.13;17.42;;;10.80;99.90;;;;;;4906684;28;20058;-62
2022/10/14 07:08:31;;;;;;;183.93;19.50;;;10.70;99.90;;;;;;4939765;28;20469;-61
2022/10/14 07:10:57;;;;;;;75.57;18.73;;;10.80;99.90;;;;;;4932613;28;20055;-62
2022/10/14 07:13:22;;;;;;;104.90;19.60;;;10.80;99.90;;;;;;4928309;28;20046;-62
2022/10/14 07:15:50;;;;;;;104.55;19.98;;;10.80;99.90;;;;;;4936365;28;20054;-62
2022/10/14 07:18:16;;;;;;;130.05;20.30;;;10.80;99.90;;;;;;4950056;28;20819;-62
2022/10/14 07:20:42;;;;;;;87.05;19.38;;;10.90;99.90;;;;;;4930524;28;20117;-62
2022/10/14 07:23:08;;;;;;;65.65;18.25;;;10.90;99.90;;;;;;4927417;28;20051;-62
2022/10/14 07:25:34;;;;;;;56.65;18.65;;;10.90;99.90;;;;;;4917792;28;20058;-61
2022/10/14 07:27:59;;;;;;;68.25;19.60;;;10.90;99.90;;;;;;4921896;28;20410;-62
2022/10/14 07:30:26;;;;;;;55.92;18.83;;;10.90;99.90;;;;;;4935811;28;20058;-62
2022/10/14 07:32:52;;;;;;;60.78;18.65;;;11.00;99.90;;;;;;4936119;28;20042;-62
2022/10/14 07:35:18;;;;;;;47.42;18.63;;;11.00;99.90;;;;;;4935678;28;20057;-62
2022/10/14 07:37:45;;;;;;;55.03;19.05;;;11.00;99.90;;;;;;4953031;28;20043;-62
2022/10/14 07:40:12;;;;;;;55.60;19.65;;;11.10;99.90;;;;;;4949185;28;20501;-62
2022/10/14 07:42:38;;;;;;;71.63;21.80;;;11.10;99.90;;;;;;4931174;28;20055;-62
2022/10/14 07:45:05;;;;;;;60.65;20.05;;;11.20;99.90;;;;;;4934760;28;20043;-63
2022/10/14 07:47:32;;;;;;;55.80;20.10;;;11.20;99.90;;;;;;4934911;28;20057;-62
2022/10/14 07:50:01;;;;;;;58.03;19.63;;;11.20;99.90;;;;;;4932564;28;20419;-62
2022/10/14 07:52:27;;;;;;;58.58;20.23;;;11.30;99.90;;;;;;4933039;28;20050;-62
2022/10/14 07:54:53;;;;;;;62.13;20.98;;;11.20;99.90;;;;;;4936406;28;20055;-62
2022/10/14 07:57:19;;;;;;;72.80;21.33;;;11.30;99.90;;;;;;4939040;28;20488;-61
2022/10/14 07:59:45;;;;;;;61.05;20.30;;;11.30;99.90;;;;;;4949967;28;20113;-62
2022/10/14 08:02:12;;;;;;;58.30;20.58;;;11.30;99.90;;;;;;4953804;28;20457;-62
2022/10/14 08:04:38;;;;;;;52.83;19.45;;;11.30;99.90;;;;;;4948024;28;20077;-61
2022/10/14 08:07:04;;;;;;;59.60;20.83;;;11.30;99.90;;;;;;4950575;28;20075;-62
2022/10/14 08:09:30;;;;;;;55.67;21.38;;;11.30;99.90;;;;;;4948710;28;21361;-62
2022/10/14 08:11:56;;;;;;;63.90;20.88;;;11.40;99.90;;;;;;4912212;28;20105;-62
2022/10/14 08:14:22;;;;;;;68.43;21.70;;;11.40;99.90;;;;;;4931715;28;20043;-61
2022/10/14 08:16:48;;;;;;;63.97;22.33;;;11.40;99.90;;;;;;4948497;28;20171;-62
2022/10/14 08:19:13;;;;;;;59.28;22.00;;;11.50;99.90;;;;;;4919721;28;20053;-61
2022/10/14 08:21:40;;;;;;;73.40;22.83;;;11.50;99.90;;;;;;4942400;28;20481;-62
2022/10/14 08:24:06;;;;;;;61.78;23.40;;;11.50;99.90;;;;;;4943003;28;20506;-62
2022/10/14 08:26:35;;;;;;;57.15;20.20;;;11.60;99.90;;;;;;4912387;28;20106;-62
2022/10/14 08:29:06;;;;;;;64.95;22.98;;;11.60;99.90;;;;;;4952127;28;20423;-62
2022/10/14 08:31:32;;;;;;;64.22;22.58;;;11.60;99.90;;;;;;4937979;28;20054;-61
2022/10/14 08:33:59;;;;;;;60.08;21.63;;;11.60;99.90;;;;;;4954396;28;20055;-62
2022/10/14 08:36:25;;;;;;;61.72;22.75;;;11.70;99.90;;;;;;4952281;28;20090;-62
2022/10/14 08:38:52;;;;;;;55.83;21.40;;;11.70;99.90;;;;;;4952863;28;20039;-62
2022/10/14 08:41:24;;;;;;;50.67;20.98;;;11.70;99.90;;;;;;4953548;28;20047;-62
2022/10/14 08:44:16;;;;;;;45.40;20.77;;;11.80;99.90;;;;;;4937465;28;20102;-61
2022/10/14 08:47:02;;;;;;;49.38;21.25;;;11.80;99.90;;;;;;4951928;28;20047;-62
2022/10/14 08:50:01;;;;;;;46.72;20.55;;;11.90;99.90;;;;;;4927391;28;20199;-62
2022/10/14 08:52:35;;;;;;;46.90;21.70;;;11.90;99.90;;;;;;4944702;28;20055;-61
2022/10/14 08:55:10;;;;;;;53.20;22.60;;;12.00;99.90;;;;;;4945335;28;20051;-61
2022/10/14 08:57:47;;;;;;;55.85;22.77;;;12.00;99.90;;;;;;4940431;28;20078;-62
2022/10/14 09:00:13;;;;;;;49.03;22.10;;;12.00;99.90;;;;;;4945366;28;20508;-62
2022/10/14 09:02:44;;;;;;;50.05;22.25;;;12.10;99.90;;;;;;4938867;28;20474;-62
2022/10/14 09:05:20;;;;;;;50.45;23.33;;;12.10;99.90;;;;;;4938101;28;20125;-62
2022/10/14 09:07:49;;;;;;;51.15;22.48;;;12.20;99.90;;;;;;4937167;28;20411;-61
2022/10/14 09:10:25;;;;;;;44.22;22.50;;;12.20;99.90;;;;;;4941060;28;20054;-62
2022/10/14 09:12:54;;;;;;;43.42;21.77;;;12.20;99.90;;;;;;4950927;28;20051;-62
2022/10/14 09:15:55;;;;;;;40.70;21.65;;;12.20;99.90;;;;;;4952206;28;20951;-62
2022/10/14 09:18:31;;;;;;;43.28;22.23;;;12.30;99.90;;;;;;4932493;28;20054;-62
2022/10/14 09:20:58;;;;;;;45.38;21.83;;;12.30;99.90;;;;;;4937795;28;20089;-62
2022/10/14 09:23:26;;;;;;;47.28;22.83;;;12.40;99.90;;;;;;4950186;28;20061;-62
2022/10/14 09:25:59;;;;;;;46.75;22.38;;;12.40;99.90;;;;;;4944981;28;20054;-62
2022/10/14 09:28:37;;;;;;;;;;;12.50;99.90;;;;;;4954877;28;20110;-62
2022/10/14 09:31:04;;;;;;;43.70;22.13;;;12.50;99.90;;;;;;4937448;28;20288;-62
2022/10/14 09:33:32;;;;;;;43.55;22.48;;;12.60;99.90;;;;;;4954500;28;20062;-62
2022/10/14 09:35:58;;;;;;;44.08;21.27;;;12.60;99.90;;;;;;4936049;28;20047;-61
2022/10/14 09:38:25;;;;;;;43.63;22.35;;;12.60;99.90;;;;;;4943117;28;20647;-62
2022/10/14 09:40:58;;;;;;;42.00;22.70;;;12.60;99.90;;;;;;4935723;28;20393;-62
2022/10/14 09:43:24;;;;;;;42.17;22.45;;;12.60;99.90;;;;;;4920194;28;20122;-62
2022/10/14 09:46:07;;;;;;;41.55;22.98;;;12.60;99.90;;;;;;4935964;28;20062;-62
2022/10/14 09:48:38;;;;;;;42.67;23.02;;;12.60;99.90;;;;;;4935761;28;20039;-62
2022/10/14 09:51:08;;;;;;;41.00;23.48;;;12.70;99.90;;;;;;4943532;28;20054;-61
2022/10/14 09:53:44;;;;;;;42.92;23.63;;;12.70;99.90;;;;;;4937995;28;20079;-62
2022/10/14 09:56:11;;;;;;;46.28;24.58;;;12.70;99.90;;;;;;4935775;28;20188;-62
2022/10/14 09:58:45;;;;;;;42.97;24.13;;;12.80;99.90;;;;;;4935270;28;20042;-62
2022/10/14 10:01:18;;;;;;;43.90;23.50;;;12.80;99.90;;;;;;4943776;28;20054;-62
2022/10/14 10:03:44;;;;;;;;;;;12.80;99.90;;;;;;4951288;28;20043;-62
2022/10/14 10:06:17;;;;;;;44.80;22.98;;;12.80;99.90;;;;;;4948531;28;19930;-62
2022/10/14 10:09:01;;;;;;;43.13;24.92;;;12.90;99.90;;;;;;4950598;28;20117;-62
2022/10/14 10:11:38;;;;;;;40.58;23.08;;;12.90;99.90;;;;;;4950553;28;20057;-61
2022/10/14 10:14:21;;;;;;;47.05;24.10;;;12.90;99.90;;;;;;4943479;28;20374;-62
2022/10/14 10:16:48;;;;;;;44.65;23.70;;;13.00;99.90;;;;;;4933823;28;20059;-62
2022/10/14 10:19:20;;;;;;;45.60;25.40;;;13.00;99.90;;;;;;4933443;28;20496;-62
2022/10/14 10:21:46;;;;;;;44.70;24.13;;;13.00;99.90;;;;;;4933911;28;20039;-62
2022/10/14 10:24:21;;;;;;;40.85;23.10;;;13.10;99.90;;;;;;4932629;28;20051;-62
2022/10/14 10:26:47;;;;;;;42.55;22.58;;;13.10;99.90;;;;;;4950878;28;20464;-62
2022/10/14 10:29:29;;;;;;;43.50;23.55;;;13.20;99.90;;;;;;4953775;28;20058;-62
2022/10/14 10:32:11;;;;;;;44.67;23.63;;;13.20;99.90;;;;;;4952712;28;20051;-61
2022/10/14 10:34:46;;;;;;;46.28;24.58;;;13.20;99.90;;;;;;4936276;28;20085;-62
2022/10/14 10:37:21;;;;;;;42.30;22.65;;;13.30;99.90;;;;;;4931933;28;20047;-62
2022/10/14 10:40:16;;;;;;;38.50;22.17;;;13.30;99.90;;;;;;4950663;28;20066;-62
2022/10/14 10:43:13;;;;;;;38.83;21.60;;;13.40;99.90;;;;;;4926207;28;20162;-62
2022/10/14 10:45:59;;;;;;;36.10;20.70;;;13.40;99.90;;;;;;4932544;28;20053;-62
2022/10/14 10:48:39;;;;;;;39.40;21.67;;;13.40;99.90;;;;;;4935814;28;20053;-61
2022/10/14 10:51:13;;;;;;;33.17;20.08;;;13.40;99.90;;;;;;4933431;28;20050;-62
2022/10/14 10:54:01;;;;;;;32.08;19.02;;;13.50;99.90;;;;;;4948728;28;20046;-62
2022/10/14 10:56:39;;;;;;;33.28;19.10;;;13.50;99.90;;;;;;4949752;28;20109;-62
2022/10/14 10:59:30;;;;;;;36.63;19.80;;;13.60;99.90;;;;;;4951546;28;20499;-62
2022/10/14 11:01:59;;;;;;;30.33;17.45;;;13.70;99.90;;;;;;4921004;28;20055;-62
2022/10/14 11:04:31;;;;;;;29.45;17.92;;;13.70;99.90;;;;;;4952096;28;20039;-61
2022/10/14 11:13:38;;;;;;;28.02;16.58;;;13.80;99.90;;;;;;4936758;28;20449;-62
2022/10/14 11:16:09;;;;;;;24.85;15.48;;;13.80;99.90;;;;;;4941859;28;20083;-62
2022/10/14 11:18:49;;;;;;;26.75;14.70;;;13.80;99.90;;;;;;4943371;28;20050;-62
2022/10/14 11:21:15;;;;;;;25.70;15.02;;;13.80;99.90;;;;;;4933912;28;20070;-62
2022/10/14 11:23:58;;;;;;;26.50;15.38;;;13.70;99.90;;;;;;4911493;28;20046;-62
2022/10/14 11:26:52;;;;;;;23.23;13.57;;;13.70;99.90;;;;;;4950162;28;20045;-62
2022/10/14 11:29:21;;;;;;;23.65;13.77;;;13.80;99.90;;;;;;4932464;28;20057;-62
2022/10/14 11:31:52;;;;;;;23.23;12.13;;;13.80;99.90;;;;;;4933795;28;20770;-62
2022/10/14 11:34:43;;;;;;;17.10;10.52;;;13.90;99.90;;;;;;4936578;28;20051;-62
2022/10/14 11:37:19;;;;;;;14.07;8.38;;;13.90;99.90;;;;;;4931351;28;20057;-62
2022/10/14 11:39:57;;;;;;;15.07;9.15;;;13.90;99.90;;;;;;4930418;28;20287;-62
2022/10/14 11:42:49;;;;;;;16.70;10.10;;;13.90;99.90;;;;;;4949584;28;20035;-62
2022/10/14 11:45:15;;;;;;;16.55;8.82;;;14.00;99.90;;;;;;4948555;28;20073;-62
2022/10/14 11:47:45;;;;;;;13.65;8.35;;;14.00;99.90;;;;;;4947229;28;20051;-62
2022/10/14 11:50:20;;;;;;;16.45;9.27;;;14.00;99.90;;;;;;4946674;28;20129;-62
2022/10/14 11:52:53;;;;;;;13.88;8.77;;;14.00;99.90;;;;;;4928607;28;20047;-63
2022/10/14 11:55:27;;;;;;;15.55;8.27;;;14.00;99.90;;;;;;4940001;28;20055;-62
2022/10/14 11:58:09;;;;;;;13.77;8.20;;;14.00;99.90;;;;;;4940056;28;20043;-62
2022/10/14 12:00:36;;;;;;;12.15;7.82;;;13.90;99.90;;;;;;4932893;28;20039;-62
2022/10/14 12:03:33;;;;;;;12.90;7.88;;;13.90;99.90;;;;;;4930946;28;20710;-62
2022/10/14 12:06:02;;;;;;;11.73;6.85;;;14.00;99.90;;;;;;4941214;28;20126;-62
2022/10/14 12:08:36;;;;;;;13.35;8.07;;;14.00;99.90;;;;;;4934093;28;20951;-62
2022/10/14 12:11:14;;;;;;;10.40;7.22;;;14.10;99.90;;;;;;4927178;28;20047;-62
2022/10/14 12:13:56;;;;;;;12.77;7.40;;;14.10;99.90;;;;;;4937992;28;20120;-62
2022/10/14 12:16:23;;;;;;;11.40;7.28;;;14.10;99.90;;;;;;4935498;28;20126;-63
2022/10/14 12:18:54;;;;;;;12.00;7.88;;;14.10;99.90;;;;;;4950461;28;20054;-62
2022/10/14 12:21:26;;;;;;;13.68;8.00;;;14.10;99.90;;;;;;4936905;28;20038;-62
2022/10/14 12:23:55;;;;;;;;;;;14.10;99.90;;;;;;4951750;28;20053;-62
2022/10/14 12:26:23;;;;;;;12.18;7.78;;;14.10;99.90;;;;;;4952330;28;19943;-62
2022/10/14 12:28:50;;;;;;;12.85;8.52;;;14.10;99.90;;;;;;4938150;28;20039;-62
2022/10/14 12:31:34;;;;;;;14.68;8.95;;;14.20;99.90;;;;;;4936885;28;20121;-62
2022/10/14 12:34:10;;;;;;;12.13;7.88;;;14.20;99.90;;;;;;4936820;28;20454;-62
2022/10/14 12:36:37;;;;;;;13.20;8.68;;;14.20;99.90;;;;;;4940508;28;20525;-62
2022/10/14 12:39:33;;;;;;;15.20;9.27;;;14.20;99.90;;;;;;4945572;28;20407;-62
2022/10/14 12:42:11;;;;;;;13.77;8.55;;;14.20;99.90;;;;;;4924850;28;20622;-62
2022/10/14 12:44:56;;;;;;;16.10;10.05;;;14.20;99.90;;;;;;4925098;28;20051;-62
2022/10/14 12:47:32;;;;;;;15.65;9.65;;;14.20;99.90;;;;;;4928174;28;20051;-62
2022/10/14 12:50:01;;;;;;;18.63;10.38;;;14.10;99.90;;;;;;4940804;28;20117;-62
2022/10/14 12:52:36;;;;;;;16.42;9.57;;;14.10;99.90;;;;;;4943200;28;20074;-63